YMAV/AVV METAR and TAF weather

Enter ICAO airport designator
Station Type Date Time Source
YMAV METAR 2019/12/09 00:30 UTC NOAA

YMAV 090030Z AUTO 32017KT 9999 // NCD 37/00 Q1012 RF00.0/000.0


Station Type Date Time Source
YMAV Decoded METAR 2019/12/09 00:30 UTC NOAA

Avalon, Avalon Airport, Australia (YMAV) 38-02S 144-29E
Dec 08, 2019 - 07:30 PM EST / 2019.12.09 0030 UTC
Wind: from the NW (320 degrees) at 20 MPH (17 KT):0
Visibility: greater than 7 mile(s):0
Temperature: 98 F (37 C)
Dew Point: 32 F (0 C)
Relative Humidity: 9%
Pressure (altimeter): 29.88 in. Hg (1012 hPa)
ob: YMAV 090030Z AUTO 32017KT 9999 // NCD 37/00 Q1012 RF00.0/000.0
cycle: 0

Station Type Date Time Source
YMAV TAF 2019/12/08 18:33 UTC NOAA

TAF YMAV 081713Z 0818/0918 03007KT CAVOK
FM082200 36015G25KT CAVOK
FM090400 32013KT CAVOK
FM090600 25015G25KT CAVOK
FM091000 25012KT CAVOK
FM091200 20010KT 9999 SCT008 BKN020
TEMPO 0912/0917 9999 BKN008

Example: see airport list